createdAt,value
2023-01-21T00:00:22.667Z,6.25
2023-01-21T00:02:54.791Z,7.70
2023-01-21T00:05:29.714Z,6.95
2023-01-21T00:08:02.742Z,6.85
2023-01-21T00:10:34.633Z,6.38
2023-01-21T00:13:06.393Z,6.95
2023-01-21T00:15:38.158Z,7.35
2023-01-21T00:18:09.862Z,6.82
2023-01-21T00:20:41.575Z,7.43
2023-01-21T00:23:13.291Z,6.25
2023-01-21T00:25:45.123Z,7.22
2023-01-21T00:28:16.781Z,7.47
2023-01-21T00:30:50.722Z,7.53
2023-01-21T00:33:23.809Z,6.93
2023-01-21T00:36:02.757Z,7.40
2023-01-21T00:38:36.860Z,7.70
2023-01-21T00:41:11.280Z,6.82
2023-01-21T00:43:44.157Z,6.80
2023-01-21T00:46:16.470Z,6.72
2023-01-21T00:48:48.185Z,7.22
2023-01-21T00:51:19.922Z,5.22
2023-01-21T00:53:51.655Z,7.10
2023-01-21T00:56:23.742Z,7.25
2023-01-21T00:58:55.536Z,6.85
2023-01-21T01:01:34.527Z,7.47
2023-01-21T01:04:06.300Z,7.70
2023-01-21T01:06:38.018Z,5.38
2023-01-21T01:09:10.023Z,7.55
2023-01-21T01:11:41.701Z,6.85
2023-01-21T01:14:13.372Z,5.68
2023-01-21T01:16:45.037Z,6.22
2023-01-21T01:19:17.405Z,6.07
2023-01-21T01:21:49.075Z,6.15
2023-01-21T01:24:20.764Z,6.85
2023-01-21T01:26:52.480Z,5.72
2023-01-21T01:29:28.998Z,7.60
2023-01-21T01:32:00.679Z,6.68
2023-01-21T01:34:32.311Z,7.20
2023-01-21T01:37:04.422Z,7.55
2023-01-21T01:39:36.059Z,6.95
2023-01-21T01:42:14.463Z,7.32
2023-01-21T01:44:59.605Z,6.93
2023-01-21T01:50:11.580Z,6.35
2023-01-21T01:52:44.554Z,7.38
2023-01-21T01:55:19.220Z,6.47
2023-01-21T01:57:55.404Z,7.80
2023-01-21T02:00:27.425Z,6.85
2023-01-21T02:03:17.717Z,7.97
2023-01-21T02:05:50.922Z,7.40
2023-01-21T02:08:23.824Z,8.23
2023-01-21T02:10:56.971Z,7.57
2023-01-21T02:13:31.297Z,8.18
2023-01-21T02:16:15.001Z,7.72
2023-01-21T02:19:39.038Z,8.32
2023-01-21T02:22:29.222Z,8.48
2023-01-21T02:25:29.176Z,9.02
2023-01-21T02:28:22.162Z,8.30
2023-01-21T02:30:56.639Z,7.10
2023-01-21T02:33:52.539Z,9.63
2023-01-21T02:36:30.068Z,8.23
2023-01-21T02:39:20.396Z,8.98
2023-01-21T02:42:06.674Z,8.20
2023-01-21T02:44:46.802Z,8.38
2023-01-21T02:47:32.618Z,10.00
2023-01-21T02:50:11.123Z,9.02
2023-01-21T02:52:42.760Z,8.48
2023-01-21T02:55:16.652Z,7.40
2023-01-21T02:57:57.346Z,7.90
2023-01-21T03:00:48.757Z,6.95
2023-01-21T03:03:48.685Z,7.25
2023-01-21T03:06:43.946Z,8.45
2023-01-21T03:09:25.152Z,8.45
2023-01-21T03:12:20.036Z,7.40
2023-01-21T03:15:40.351Z,9.48
2023-01-21T03:18:34.224Z,8.63
2023-01-21T03:21:18.385Z,8.68
2023-01-21T03:23:54.206Z,9.25
2023-01-21T03:26:33.713Z,8.77
2023-01-21T03:29:11.922Z,7.25
2023-01-21T03:31:48.665Z,8.90
2023-01-21T03:34:24.673Z,8.60
2023-01-21T03:37:28.956Z,8.68
2023-01-21T03:40:19.269Z,7.78
2023-01-21T03:42:52.655Z,8.02
2023-01-21T03:45:41.315Z,7.60
2023-01-21T03:48:24.929Z,7.28
2023-01-21T03:51:02.326Z,8.57
2023-01-21T03:53:34.074Z,6.47
2023-01-21T03:56:05.903Z,7.25
2023-01-21T03:58:37.613Z,8.02
2023-01-21T04:01:09.351Z,7.25
2023-01-21T04:03:43.415Z,7.53
2023-01-21T04:06:20.408Z,7.13
2023-01-21T04:08:52.204Z,6.45
2023-01-21T04:11:24.045Z,7.82
2023-01-21T04:13:55.797Z,7.45
2023-01-21T04:16:27.695Z,7.18
2023-01-21T04:18:59.571Z,7.38
2023-01-21T04:21:31.255Z,6.72
2023-01-21T04:24:02.987Z,6.15
2023-01-21T04:26:34.660Z,5.38
2023-01-21T04:29:06.364Z,6.47
2023-01-21T04:31:38.105Z,5.55
2023-01-21T04:34:10.033Z,5.57
2023-01-21T04:36:41.743Z,5.63
2023-01-21T04:39:13.623Z,6.05
2023-01-21T04:41:45.767Z,7.05
2023-01-21T04:44:17.591Z,5.47
2023-01-21T04:46:49.613Z,6.50
2023-01-21T04:49:21.344Z,6.85
2023-01-21T04:51:53.372Z,7.40
2023-01-21T04:54:25.142Z,6.55
2023-01-21T04:56:56.941Z,7.15
2023-01-21T04:59:28.687Z,7.40
2023-01-21T05:02:01.376Z,6.30
2023-01-21T05:04:33.153Z,6.80
2023-01-21T05:07:05.472Z,6.68
2023-01-21T05:09:37.440Z,6.78
2023-01-21T05:12:09.668Z,6.47
2023-01-21T05:14:41.348Z,7.20
2023-01-21T05:17:13.025Z,6.75
2023-01-21T05:19:44.954Z,5.68
2023-01-21T05:22:17.531Z,6.18
2023-01-21T05:24:49.177Z,6.20
2023-01-21T05:27:21.769Z,5.63
2023-01-21T05:29:53.703Z,6.93
2023-01-21T05:32:25.365Z,6.65
2023-01-21T05:34:57.071Z,6.45
2023-01-21T05:37:28.732Z,6.68
2023-01-21T05:40:00.415Z,6.90
2023-01-21T05:42:32.102Z,5.72
2023-01-21T05:45:05.799Z,5.93
2023-01-21T05:47:38.094Z,6.28
2023-01-21T05:50:10.919Z,6.05
2023-01-21T05:52:42.606Z,6.45
2023-01-21T05:55:14.363Z,5.90
2023-01-21T05:57:46.085Z,5.45
2023-01-21T06:00:18.355Z,5.80
2023-01-21T06:02:50.294Z,6.10
2023-01-21T06:05:22.266Z,6.05
2023-01-21T06:07:59.915Z,5.53
2023-01-21T06:10:31.562Z,5.25
2023-01-21T06:13:03.763Z,5.57
2023-01-21T06:15:35.571Z,6.03
2023-01-21T06:18:07.627Z,5.72
2023-01-21T06:20:39.521Z,4.93
2023-01-21T06:23:11.177Z,5.78
2023-01-21T06:25:43.612Z,5.95
2023-01-21T06:28:15.271Z,5.45
2023-01-21T06:30:47.218Z,5.93
2023-01-21T06:33:18.951Z,5.88
2023-01-21T06:35:50.699Z,5.45
2023-01-21T06:38:22.330Z,5.57
2023-01-21T06:40:56.033Z,6.53
2023-01-21T06:43:27.675Z,5.97
2023-01-21T06:46:02.505Z,5.50
2023-01-21T06:51:08.771Z,5.80
2023-01-21T06:53:40.513Z,5.00
2023-01-21T06:56:12.262Z,5.40
2023-01-21T06:58:43.883Z,5.38
2023-01-21T07:01:18.365Z,5.80
2023-01-21T07:03:52.982Z,5.72
2023-01-21T07:06:26.078Z,6.65
2023-01-21T07:08:57.735Z,5.22
2023-01-21T07:11:29.997Z,5.35
2023-01-21T07:14:03.717Z,6.53
2023-01-21T07:16:35.500Z,5.60
2023-01-21T07:19:07.235Z,6.03
2023-01-21T07:21:41.329Z,5.32
2023-01-21T07:24:13.073Z,6.40
2023-01-21T07:26:44.729Z,5.60
2023-01-21T07:29:16.461Z,5.55
2023-01-21T07:31:48.231Z,5.75
2023-01-21T07:34:20.190Z,5.18
2023-01-21T07:36:51.891Z,5.28
2023-01-21T07:39:25.810Z,5.20
2023-01-21T07:41:57.566Z,4.45
2023-01-21T07:44:31.529Z,5.38
2023-01-21T07:47:03.381Z,5.82
2023-01-21T07:49:35.077Z,5.10
2023-01-21T07:52:06.900Z,4.13
2023-01-21T07:54:41.571Z,4.18
2023-01-21T07:57:14.791Z,4.55
2023-01-21T07:59:46.424Z,4.88
2023-01-21T08:02:18.248Z,5.38
2023-01-21T08:04:50.011Z,4.97
2023-01-21T08:07:21.740Z,4.50
2023-01-21T08:09:53.434Z,4.32
2023-01-21T08:12:27.161Z,4.20
2023-01-21T08:14:59.013Z,4.10
2023-01-21T08:17:30.759Z,4.03
2023-01-21T08:20:02.435Z,4.78
2023-01-21T08:22:34.190Z,4.10
2023-01-21T08:25:06.588Z,4.47
2023-01-21T08:27:38.334Z,3.75
2023-01-21T08:30:10.516Z,4.72
2023-01-21T08:32:42.210Z,4.88
2023-01-21T08:35:13.908Z,4.65
2023-01-21T08:37:45.611Z,4.45
2023-01-21T08:40:17.280Z,5.13
2023-01-21T08:42:48.980Z,3.97
2023-01-21T08:45:20.922Z,4.40
2023-01-21T08:47:52.854Z,4.65
2023-01-21T08:50:24.603Z,3.85
2023-01-21T08:52:58.452Z,4.30
2023-01-21T08:55:30.127Z,4.43
2023-01-21T08:58:02.220Z,3.97
2023-01-21T09:00:34.206Z,3.85
2023-01-21T09:03:08.879Z,4.05
2023-01-21T09:05:40.583Z,3.60
2023-01-21T09:08:12.358Z,4.35
2023-01-21T09:11:02.555Z,3.25
2023-01-21T09:13:40.492Z,3.72
2023-01-21T09:16:15.392Z,4.43
2023-01-21T09:18:47.650Z,4.80
2023-01-21T09:21:19.342Z,4.68
2023-01-21T09:23:51.018Z,5.05
2023-01-21T09:26:24.072Z,4.10
2023-01-21T09:28:58.686Z,4.80
2023-01-21T09:31:35.656Z,4.43
2023-01-21T09:34:08.158Z,4.57
2023-01-21T09:36:39.922Z,4.60
2023-01-21T09:39:11.565Z,4.75
2023-01-21T09:41:52.595Z,5.45
2023-01-21T09:44:46.925Z,5.57
2023-01-21T09:47:41.391Z,5.18
2023-01-21T09:50:23.820Z,4.78
2023-01-21T09:53:07.518Z,5.25
2023-01-21T09:55:46.833Z,5.50
2023-01-21T09:58:34.457Z,5.80
2023-01-21T10:01:38.847Z,5.35
2023-01-21T10:04:33.822Z,6.05
2023-01-21T10:07:34.069Z,7.03
2023-01-21T10:10:31.586Z,5.95
2023-01-21T10:13:32.739Z,6.45
2023-01-21T10:16:13.471Z,6.75
2023-01-21T10:18:53.327Z,6.57
2023-01-21T10:21:52.588Z,6.20
2023-01-21T10:24:28.701Z,6.25
2023-01-21T10:27:02.309Z,7.40
2023-01-21T10:29:41.664Z,7.28
2023-01-21T10:32:17.995Z,8.05
2023-01-21T10:34:55.491Z,6.80
2023-01-21T10:37:33.175Z,6.93
2023-01-21T10:40:42.295Z,7.35
2023-01-21T10:43:35.435Z,8.00
2023-01-21T10:46:16.869Z,6.97
2023-01-21T10:49:21.210Z,7.13
2023-01-21T10:52:30.953Z,6.97
2023-01-21T10:55:13.289Z,6.95
2023-01-21T10:57:55.484Z,7.32
2023-01-21T11:00:37.031Z,6.93
2023-01-21T11:03:20.104Z,6.65
2023-01-21T11:05:51.737Z,7.22
2023-01-21T11:08:26.311Z,7.15
2023-01-21T11:10:59.482Z,7.53
2023-01-21T11:13:31.164Z,7.28
2023-01-21T11:16:04.634Z,8.07
2023-01-21T11:18:39.925Z,8.18
2023-01-21T11:21:19.095Z,7.93
2023-01-21T11:23:55.514Z,7.88
2023-01-21T11:26:29.862Z,7.18
2023-01-21T11:29:21.566Z,7.90
2023-01-21T11:32:02.854Z,8.07
2023-01-21T11:34:36.333Z,8.13
2023-01-21T11:40:05.304Z,7.90
2023-01-21T11:42:47.643Z,7.60
2023-01-21T11:45:34.041Z,7.35
2023-01-21T11:48:22.116Z,7.55
2023-01-21T11:51:08.190Z,6.00
2023-01-21T11:53:41.213Z,8.52
2023-01-21T11:56:16.259Z,5.57
2023-01-21T11:58:48.459Z,7.57
2023-01-21T12:01:24.265Z,9.48
2023-01-21T12:04:00.952Z,9.35
2023-01-21T12:06:34.890Z,9.40
2023-01-21T12:09:19.750Z,10.00
2023-01-21T12:12:26.995Z,10.25
2023-01-21T12:15:03.970Z,9.02
2023-01-21T12:17:48.375Z,10.20
2023-01-21T12:20:55.354Z,10.80
2023-01-21T12:23:52.624Z,11.13
2023-01-21T12:26:45.526Z,11.55
2023-01-21T12:29:39.027Z,9.82
2023-01-21T12:32:39.045Z,10.15
2023-01-21T12:35:22.482Z,10.02
2023-01-21T12:38:11.259Z,10.80
2023-01-21T12:41:10.420Z,9.95
2023-01-21T12:43:50.037Z,9.90
2023-01-21T12:46:27.640Z,10.27
2023-01-21T12:49:18.575Z,9.32
2023-01-21T12:51:56.514Z,9.65
2023-01-21T12:54:50.444Z,10.38
2023-01-21T12:57:34.754Z,10.18
2023-01-21T13:00:25.059Z,9.17
2023-01-21T13:03:17.369Z,9.20
2023-01-21T13:06:03.035Z,9.50
2023-01-21T13:08:49.604Z,9.00
2023-01-21T13:11:36.998Z,9.65
2023-01-21T13:14:08.653Z,9.20
2023-01-21T13:17:02.501Z,8.95
2023-01-21T13:19:35.776Z,8.85
2023-01-21T13:22:13.483Z,8.88
2023-01-21T13:25:22.316Z,9.32
2023-01-21T13:28:20.910Z,9.23
2023-01-21T13:31:22.123Z,8.68
2023-01-21T13:34:14.053Z,8.55
2023-01-21T13:36:47.052Z,9.07
2023-01-21T13:39:28.306Z,8.93
2023-01-21T13:42:37.155Z,8.40
2023-01-21T13:45:36.175Z,8.63
2023-01-21T13:48:10.840Z,9.13
2023-01-21T13:51:00.400Z,8.85
2023-01-21T13:54:11.661Z,8.43
2023-01-21T13:57:01.645Z,9.02
2023-01-21T13:59:45.655Z,8.65
2023-01-21T14:02:45.252Z,8.10
2023-01-21T14:05:38.862Z,8.77
2023-01-21T14:08:10.456Z,8.68
2023-01-21T14:10:54.274Z,8.65
2023-01-21T14:13:51.038Z,8.63
2023-01-21T14:16:48.744Z,8.80
2023-01-21T14:19:26.690Z,8.05
2023-01-21T14:22:13.184Z,8.80
2023-01-21T14:24:57.720Z,8.13
2023-01-21T14:27:46.876Z,8.77
2023-01-21T14:30:31.476Z,8.43
2023-01-21T14:33:09.025Z,8.65
2023-01-21T14:35:54.095Z,8.70
2023-01-21T14:38:37.855Z,8.38
2023-01-21T14:41:11.461Z,9.52
2023-01-21T14:43:50.922Z,8.52
2023-01-21T14:46:27.473Z,8.63
2023-01-21T14:49:08.542Z,8.23
2023-01-21T14:51:51.945Z,8.30
2023-01-21T14:54:27.012Z,8.63
2023-01-21T14:57:18.161Z,8.77
2023-01-21T14:59:53.323Z,8.57
2023-01-21T15:02:33.336Z,8.50
2023-01-21T15:05:22.328Z,9.40
2023-01-21T15:08:20.638Z,8.25
2023-01-21T15:10:58.804Z,8.75
2023-01-21T15:13:43.369Z,8.77
2023-01-21T15:16:17.872Z,9.05
2023-01-21T15:19:19.856Z,8.32
2023-01-21T15:22:00.383Z,8.00
2023-01-21T15:24:39.746Z,7.57
2023-01-21T15:27:19.071Z,8.45
2023-01-21T15:29:53.768Z,8.32
2023-01-21T15:32:28.352Z,9.13
2023-01-21T15:35:12.688Z,7.78
2023-01-21T15:37:47.184Z,7.93
2023-01-21T15:40:29.254Z,7.63
2023-01-21T15:43:04.971Z,7.55
2023-01-21T15:45:53.057Z,7.90
2023-01-21T15:48:50.211Z,6.95
2023-01-21T15:51:36.773Z,7.63
2023-01-21T15:54:39.359Z,6.65
2023-01-21T15:57:22.970Z,7.78
2023-01-21T16:00:13.826Z,6.55
2023-01-21T16:02:57.886Z,7.72
2023-01-21T16:05:59.469Z,7.35
2023-01-21T16:08:48.229Z,7.50
2023-01-21T16:11:44.169Z,7.80
2023-01-21T16:14:52.461Z,7.10
2023-01-21T16:17:55.294Z,6.43
2023-01-21T16:20:26.949Z,6.53
2023-01-21T16:23:02.350Z,6.38
2023-01-21T16:25:34.061Z,5.88
2023-01-21T16:28:05.744Z,6.93
2023-01-21T16:30:37.471Z,6.72
2023-01-21T16:33:14.173Z,7.00
2023-01-21T16:35:57.311Z,7.15
2023-01-21T16:38:32.003Z,6.50
2023-01-21T16:41:06.646Z,6.07
2023-01-21T16:43:50.490Z,6.40
2023-01-21T16:46:24.307Z,6.85
2023-01-21T16:48:58.213Z,6.63
2023-01-21T16:51:33.995Z,6.77
2023-01-21T16:54:17.648Z,6.68
2023-01-21T16:57:25.631Z,5.82
2023-01-21T17:02:32.576Z,5.78
2023-01-21T17:05:05.326Z,6.43
2023-01-21T17:07:51.871Z,7.80
2023-01-21T17:10:35.206Z,16.40
2023-01-21T17:13:15.920Z,11.60
2023-01-21T17:15:57.578Z,7.03
2023-01-21T17:18:38.797Z,6.18
2023-01-21T17:21:17.934Z,5.75
2023-01-21T17:23:54.923Z,5.20
2023-01-21T17:26:31.650Z,4.93
2023-01-21T17:29:09.400Z,5.88
2023-01-21T17:31:42.755Z,5.60
2023-01-21T17:34:20.784Z,5.50
2023-01-21T17:36:54.867Z,5.80
2023-01-21T17:39:48.870Z,5.20
2023-01-21T17:42:22.690Z,5.10
2023-01-21T17:45:00.781Z,5.38
2023-01-21T17:47:48.894Z,5.07
2023-01-21T17:50:31.351Z,6.40
2023-01-21T17:53:13.929Z,4.90
2023-01-21T17:55:56.911Z,5.68
2023-01-21T17:58:31.639Z,5.25
2023-01-21T18:01:04.476Z,5.68
2023-01-21T18:03:38.652Z,6.00
2023-01-21T18:06:20.247Z,5.57
2023-01-21T18:08:52.891Z,5.80
2023-01-21T18:11:24.740Z,5.75
2023-01-21T18:13:56.436Z,5.30
2023-01-21T18:16:28.270Z,6.00
2023-01-21T18:19:00.148Z,5.45
2023-01-21T18:21:32.051Z,5.85
2023-01-21T18:24:04.006Z,6.00
2023-01-21T18:26:35.820Z,6.47
2023-01-21T18:29:11.655Z,6.00
2023-01-21T18:31:43.495Z,5.85
2023-01-21T18:34:16.441Z,5.50
2023-01-21T18:36:48.327Z,5.53
2023-01-21T18:39:20.576Z,5.40
2023-01-21T18:41:57.962Z,5.22
2023-01-21T18:44:31.228Z,5.65
2023-01-21T18:47:33.622Z,5.75
2023-01-21T18:50:07.847Z,5.20
2023-01-21T18:52:39.528Z,5.20
2023-01-21T18:55:15.032Z,5.25
2023-01-21T18:57:53.482Z,5.30
2023-01-21T19:00:38.519Z,5.13
2023-01-21T19:03:13.848Z,5.28
2023-01-21T19:05:49.991Z,4.82
2023-01-21T19:08:27.709Z,5.38
2023-01-21T19:10:59.471Z,5.55
2023-01-21T19:13:31.140Z,5.50
2023-01-21T19:16:03.104Z,5.10
2023-01-21T19:18:36.175Z,5.38
2023-01-21T19:21:08.332Z,5.07
2023-01-21T19:23:40.438Z,5.30
2023-01-21T19:26:13.863Z,5.53
2023-01-21T19:28:45.651Z,6.15
2023-01-21T19:31:17.375Z,5.63
2023-01-21T19:33:49.515Z,5.72
2023-01-21T19:36:22.671Z,5.00
2023-01-21T19:38:56.843Z,5.10
2023-01-21T19:41:28.591Z,5.38
2023-01-21T19:44:00.309Z,5.35
2023-01-21T19:46:32.088Z,4.95
2023-01-21T19:49:14.501Z,5.40
2023-01-21T19:51:46.460Z,4.80
2023-01-21T19:54:18.124Z,4.85
2023-01-21T19:56:49.970Z,4.57
2023-01-21T19:59:25.973Z,5.05
2023-01-21T20:01:57.715Z,4.75
2023-01-21T20:04:29.367Z,4.72
2023-01-21T20:07:02.440Z,5.32
2023-01-21T20:09:34.331Z,4.93
2023-01-21T20:12:10.988Z,5.07
2023-01-21T20:14:49.540Z,5.07
2023-01-21T20:17:21.718Z,5.20
2023-01-21T20:19:53.415Z,4.97
2023-01-21T20:22:26.351Z,4.22
2023-01-21T20:24:58.037Z,4.35
2023-01-21T20:27:29.795Z,4.43
2023-01-21T20:30:16.548Z,4.88
2023-01-21T20:32:51.118Z,5.35
2023-01-21T20:35:26.877Z,5.05
2023-01-21T20:38:00.824Z,5.22
2023-01-21T20:40:32.477Z,4.90
2023-01-21T20:43:04.272Z,4.30
2023-01-21T20:45:41.680Z,3.92
2023-01-21T20:48:20.069Z,4.00
2023-01-21T20:50:52.502Z,4.68
2023-01-21T20:53:24.588Z,4.65
2023-01-21T20:55:56.771Z,4.30
2023-01-21T20:58:28.615Z,4.68
2023-01-21T21:01:00.379Z,4.80
2023-01-21T21:03:33.258Z,5.05
2023-01-21T21:06:12.099Z,5.00
2023-01-21T21:08:45.778Z,4.63
2023-01-21T21:13:52.556Z,4.65
2023-01-21T21:16:31.894Z,4.70
2023-01-21T21:19:04.078Z,4.70
2023-01-21T21:21:35.772Z,4.43
2023-01-21T21:24:08.466Z,4.60
2023-01-21T21:26:40.894Z,4.72
2023-01-21T21:29:14.263Z,4.70
2023-01-21T21:31:46.001Z,5.05
2023-01-21T21:34:25.788Z,4.78
2023-01-21T21:36:57.491Z,4.50
2023-01-21T21:39:32.458Z,5.07
2023-01-21T21:42:22.583Z,4.05
2023-01-21T21:44:55.657Z,4.85
2023-01-21T21:47:56.103Z,5.00
2023-01-21T21:50:27.771Z,4.55
2023-01-21T21:53:00.984Z,4.72
2023-01-21T21:55:33.912Z,4.28
2023-01-21T21:58:05.813Z,4.72
2023-01-21T22:00:37.484Z,4.65
2023-01-21T22:03:10.904Z,5.28
2023-01-21T22:05:50.996Z,4.72
2023-01-21T22:08:24.945Z,4.95
2023-01-21T22:10:57.237Z,4.78
2023-01-21T22:13:29.360Z,4.95
2023-01-21T22:16:01.808Z,5.28
2023-01-21T22:18:35.774Z,4.80
2023-01-21T22:21:16.359Z,5.00
2023-01-21T22:23:48.877Z,5.40
2023-01-21T22:26:25.526Z,5.25
2023-01-21T22:28:57.256Z,4.78
2023-01-21T22:31:31.361Z,5.40
2023-01-21T22:34:03.236Z,5.35
2023-01-21T22:36:39.700Z,5.63
2023-01-21T22:41:43.429Z,5.38
2023-01-21T22:44:15.542Z,4.80
2023-01-21T22:46:47.957Z,5.18
2023-01-21T22:49:19.757Z,5.82
2023-01-21T22:51:51.525Z,5.78
2023-01-21T22:54:23.520Z,5.82
2023-01-21T22:56:55.258Z,5.75
2023-01-21T22:59:26.984Z,5.70
2023-01-21T23:01:58.754Z,5.72
2023-01-21T23:04:30.769Z,5.65
2023-01-21T23:07:02.452Z,5.00
2023-01-21T23:09:34.119Z,6.07
2023-01-21T23:12:09.074Z,5.95
2023-01-21T23:14:40.771Z,5.38
2023-01-21T23:17:13.713Z,5.68
2023-01-21T23:19:45.450Z,5.28
2023-01-21T23:22:17.161Z,5.50
2023-01-21T23:24:48.829Z,5.32
2023-01-21T23:27:20.531Z,5.72
2023-01-21T23:29:52.246Z,4.80
2023-01-21T23:32:23.929Z,5.28
2023-01-21T23:34:56.415Z,5.97
2023-01-21T23:37:28.166Z,5.43
2023-01-21T23:40:00.739Z,4.72
2023-01-21T23:42:32.775Z,5.35
2023-01-21T23:45:04.753Z,5.00
2023-01-21T23:47:39.037Z,5.55
2023-01-21T23:50:13.727Z,5.60
2023-01-21T23:52:45.528Z,5.75
2023-01-21T23:55:17.375Z,5.70
2023-01-21T23:57:49.048Z,4.95
